createdAt,value
2023-04-02T00:01:01.299Z,7.60
2023-04-02T00:03:59.356Z,7.50
2023-04-02T00:06:30.128Z,7.50
2023-04-02T00:09:04.448Z,7.50
2023-04-02T00:11:37.295Z,7.40
2023-04-02T00:14:13.402Z,7.40
2023-04-02T00:16:40.475Z,7.40
2023-04-02T00:19:12.854Z,7.40
2023-04-02T00:21:42.948Z,7.30
2023-04-02T00:24:21.460Z,7.30
2023-04-02T00:26:53.803Z,7.30
2023-04-02T00:29:21.038Z,7.30
2023-04-02T00:31:53.787Z,7.30
2023-04-02T00:34:28.729Z,7.30
2023-04-02T00:36:55.909Z,7.30
2023-04-02T00:39:26.168Z,7.20
2023-04-02T00:42:04.650Z,7.30
2023-04-02T00:44:43.017Z,7.20
2023-04-02T00:47:20.044Z,7.20
2023-04-02T00:49:48.807Z,7.10
2023-04-02T00:52:20.360Z,7.10
2023-04-02T00:54:56.648Z,7.10
2023-04-02T00:57:26.042Z,7.10
2023-04-02T01:00:00.680Z,7.00
2023-04-02T01:02:33.322Z,7.00
2023-04-02T01:05:02.304Z,7.00
2023-04-02T01:07:57.178Z,7.00
2023-04-02T01:11:01.857Z,6.90
2023-04-02T01:13:40.605Z,6.90
2023-04-02T01:16:18.314Z,6.80
2023-04-02T01:18:58.109Z,6.80
2023-04-02T01:21:34.470Z,6.80
2023-04-02T01:24:05.871Z,6.80
2023-04-02T01:27:02.352Z,6.70
2023-04-02T01:29:42.272Z,6.80
2023-04-02T01:32:16.707Z,6.70
2023-04-02T01:34:46.420Z,6.70
2023-04-02T01:37:22.754Z,6.70
2023-04-02T01:40:28.521Z,6.70
2023-04-02T01:43:07.866Z,6.70
2023-04-02T01:45:35.226Z,6.70
2023-04-02T01:48:08.909Z,6.60
2023-04-02T01:50:41.528Z,6.60
2023-04-02T01:53:12.107Z,6.60
2023-04-02T01:55:40.996Z,6.60
2023-04-02T01:58:11.243Z,6.60
2023-04-02T02:00:45.993Z,6.60
2023-04-02T02:03:12.863Z,6.60
2023-04-02T02:05:39.677Z,6.60
2023-04-02T02:08:15.343Z,6.60
2023-04-02T02:10:42.064Z,6.50
2023-04-02T02:13:14.747Z,6.50
2023-04-02T02:15:41.328Z,6.50
2023-04-02T02:18:11.754Z,6.50
2023-04-02T02:20:38.428Z,6.50
2023-04-02T02:23:05.810Z,6.40
2023-04-02T02:25:35.949Z,6.40
2023-04-02T02:28:12.472Z,6.40
2023-04-02T02:30:48.720Z,6.40
2023-04-02T02:33:28.153Z,6.40
2023-04-02T02:36:24.326Z,6.40
2023-04-02T02:39:13.322Z,6.40
2023-04-02T02:41:44.864Z,6.30
2023-04-02T02:44:15.676Z,6.30
2023-04-02T02:46:51.029Z,6.30
2023-04-02T02:49:31.820Z,6.30
2023-04-02T02:52:20.287Z,6.30
2023-04-02T02:54:52.818Z,6.30
2023-04-02T02:57:25.017Z,6.20
2023-04-02T02:59:54.800Z,6.20
2023-04-02T03:02:23.777Z,6.20
2023-04-02T03:04:53.364Z,6.10
2023-04-02T03:07:25.508Z,6.10
2023-04-02T03:10:12.184Z,6.10
2023-04-02T03:12:45.577Z,6.10
2023-04-02T03:15:30.645Z,6.10
2023-04-02T03:18:17.732Z,6.10
2023-04-02T03:20:51.466Z,6.10
2023-04-02T03:23:38.552Z,6.00
2023-04-02T03:26:11.827Z,6.00
2023-04-02T03:28:51.509Z,6.00
2023-04-02T03:31:31.224Z,6.00
2023-04-02T03:34:18.438Z,6.00
2023-04-02T03:37:19.948Z,6.00
2023-04-02T03:39:52.684Z,6.00
2023-04-02T03:42:30.078Z,6.00
2023-04-02T03:45:25.670Z,6.00
2023-04-02T03:47:58.521Z,6.00
2023-04-02T03:50:33.327Z,6.00
2023-04-02T03:53:04.615Z,6.00
2023-04-02T03:55:34.718Z,6.00
2023-04-02T03:58:07.328Z,5.90
2023-04-02T04:00:39.226Z,5.90
2023-04-02T04:03:14.148Z,5.90
2023-04-02T04:06:01.209Z,5.90
2023-04-02T04:08:34.377Z,5.90
2023-04-02T04:11:08.800Z,5.90
2023-04-02T04:13:44.605Z,5.80
2023-04-02T04:16:22.783Z,5.80
2023-04-02T04:19:24.665Z,5.80
2023-04-02T04:21:53.800Z,5.90
2023-04-02T04:24:23.947Z,5.80
2023-04-02T04:27:09.362Z,5.80
2023-04-02T04:30:05.722Z,5.80
2023-04-02T04:32:50.009Z,5.80
2023-04-02T04:35:36.934Z,5.80
2023-04-02T04:38:28.735Z,5.80
2023-04-02T04:41:17.217Z,5.80
2023-04-02T04:43:51.388Z,5.80
2023-04-02T04:46:39.530Z,5.70
2023-04-02T04:49:27.635Z,5.70
2023-04-02T04:52:32.706Z,5.70
2023-04-02T04:54:59.341Z,5.70
2023-04-02T04:57:32.728Z,5.60
2023-04-02T05:00:12.820Z,5.70
2023-04-02T05:02:54.216Z,5.60
2023-04-02T05:05:27.107Z,5.60
2023-04-02T05:08:20.461Z,5.60
2023-04-02T05:10:52.963Z,5.60
2023-04-02T05:13:28.290Z,5.60
2023-04-02T05:16:13.278Z,5.60
2023-04-02T05:19:15.816Z,5.60
2023-04-02T05:21:44.882Z,5.60
2023-04-02T05:24:39.111Z,5.60
2023-04-02T05:27:24.633Z,5.60
2023-04-02T05:30:05.393Z,5.60
2023-04-02T05:32:37.155Z,5.60
2023-04-02T05:35:06.530Z,5.60
2023-04-02T05:37:34.252Z,5.50
2023-04-02T05:40:13.434Z,5.60
2023-04-02T05:42:45.021Z,5.60
2023-04-02T05:45:27.725Z,5.60
2023-04-02T05:48:02.778Z,5.50
2023-04-02T05:50:44.147Z,5.40
2023-04-02T05:53:33.245Z,5.50
2023-04-02T05:56:31.300Z,5.30
2023-04-02T05:59:10.506Z,5.30
2023-04-02T06:01:49.252Z,5.20
2023-04-02T06:04:22.529Z,5.20
2023-04-02T06:06:55.968Z,5.20
2023-04-02T06:10:00.657Z,5.20
2023-04-02T06:12:42.374Z,5.20
2023-04-02T06:15:16.918Z,5.20
2023-04-02T06:17:48.259Z,5.20
2023-04-02T06:20:17.616Z,5.20
2023-04-02T06:22:48.048Z,5.20
2023-04-02T06:25:33.850Z,5.20
2023-04-02T06:28:04.238Z,5.10
2023-04-02T06:30:38.352Z,5.10
2023-04-02T06:33:05.593Z,5.10
2023-04-02T06:35:41.194Z,5.10
2023-04-02T06:38:21.106Z,5.10
2023-04-02T06:40:58.245Z,5.10
2023-04-02T06:43:56.142Z,5.00
2023-04-02T06:46:32.840Z,5.00
2023-04-02T06:49:28.178Z,5.00
2023-04-02T06:51:56.260Z,5.00
2023-04-02T06:54:22.912Z,5.00
2023-04-02T06:56:56.032Z,5.10
2023-04-02T06:59:23.108Z,5.10
2023-04-02T07:02:00.789Z,5.20
2023-04-02T07:04:27.610Z,5.20
2023-04-02T07:06:54.236Z,5.10
2023-04-02T07:09:20.822Z,5.10
2023-04-02T07:11:47.316Z,5.10
2023-04-02T07:14:14.203Z,5.00
2023-04-02T07:16:42.407Z,5.00
2023-04-02T07:19:18.167Z,5.00
2023-04-02T07:21:44.696Z,5.10
2023-04-02T07:24:11.231Z,5.00
2023-04-02T07:26:38.610Z,5.00
2023-04-02T07:29:09.880Z,5.10
2023-04-02T07:31:39.309Z,5.00
2023-04-02T07:34:06.742Z,5.00
2023-04-02T07:36:33.391Z,5.10
2023-04-02T07:38:59.975Z,5.10
2023-04-02T07:41:27.430Z,5.10
2023-04-02T07:43:53.997Z,5.20
2023-04-02T07:46:20.667Z,5.30
2023-04-02T07:48:47.767Z,5.20
2023-04-02T07:51:26.465Z,5.10
2023-04-02T07:53:56.508Z,5.00
2023-04-02T07:56:24.846Z,5.00
2023-04-02T07:58:51.763Z,5.00
2023-04-02T08:01:25.452Z,5.10
2023-04-02T08:03:57.112Z,5.10
2023-04-02T08:06:25.499Z,5.10
2023-04-02T08:08:52.390Z,5.10
2023-04-02T08:11:18.969Z,5.20
2023-04-02T08:13:45.848Z,5.20
2023-04-02T08:16:12.475Z,5.20
2023-04-02T08:18:39.301Z,5.10
2023-04-02T08:21:08.568Z,5.20
2023-04-02T08:23:35.776Z,5.30
2023-04-02T08:26:02.480Z,5.40
2023-04-02T08:28:29.184Z,5.40
2023-04-02T08:30:55.888Z,5.40
2023-04-02T08:33:22.457Z,5.40
2023-04-02T08:35:50.416Z,5.40
2023-04-02T08:38:19.190Z,5.50
2023-04-02T08:40:49.436Z,5.50
2023-04-02T08:43:38.498Z,5.60
2023-04-02T08:46:22.784Z,5.70
2023-04-02T08:48:59.136Z,5.70
2023-04-02T08:51:29.353Z,5.80
2023-04-02T08:54:03.091Z,5.90
2023-04-02T08:56:36.650Z,5.90
2023-04-02T08:59:13.087Z,5.90
2023-04-02T09:02:11.778Z,5.90
2023-04-02T09:04:38.741Z,5.90
2023-04-02T09:07:05.377Z,5.90
2023-04-02T09:09:37.664Z,5.90
2023-04-02T09:12:06.843Z,5.90
2023-04-02T09:14:59.449Z,5.80
2023-04-02T09:17:27.234Z,5.90
2023-04-02T09:20:08.766Z,5.90
2023-04-02T09:22:35.399Z,6.10
2023-04-02T09:25:04.926Z,6.10
2023-04-02T09:27:35.804Z,6.20
2023-04-02T09:30:24.139Z,6.20
2023-04-02T09:33:00.671Z,6.30
2023-04-02T09:35:29.609Z,6.30
2023-04-02T09:38:18.194Z,6.40
2023-04-02T09:40:53.901Z,6.50
2023-04-02T09:43:23.542Z,6.50
2023-04-02T09:46:12.491Z,6.60
2023-04-02T09:49:00.960Z,6.60
2023-04-02T09:51:31.552Z,6.50
2023-04-02T09:54:04.506Z,6.60
2023-04-02T09:56:33.129Z,6.60
2023-04-02T09:59:13.266Z,6.50
2023-04-02T10:01:49.699Z,6.50
2023-04-02T10:04:45.844Z,6.30
2023-04-02T10:07:31.917Z,6.30
2023-04-02T10:10:01.097Z,6.40
2023-04-02T10:12:34.321Z,6.40
2023-04-02T10:15:03.044Z,6.60
2023-04-02T10:17:34.837Z,6.60
2023-04-02T10:20:30.509Z,6.60
2023-04-02T10:22:58.671Z,6.80
2023-04-02T10:25:31.987Z,6.70
2023-04-02T10:28:44.296Z,6.90
2023-04-02T10:31:25.513Z,6.80
2023-04-02T10:34:02.931Z,6.90
2023-04-02T10:36:50.653Z,6.90
2023-04-02T10:39:32.546Z,6.90
2023-04-02T10:42:07.039Z,6.90
2023-04-02T10:44:41.285Z,7.10
2023-04-02T10:47:26.972Z,7.20
2023-04-02T10:50:09.132Z,7.20
2023-04-02T10:52:44.028Z,7.20
2023-04-02T10:55:20.128Z,7.20
2023-04-02T10:57:46.997Z,7.40
2023-04-02T11:00:16.783Z,7.50
2023-04-02T11:02:51.904Z,7.60
2023-04-02T11:05:48.145Z,7.60
2023-04-02T11:08:20.746Z,7.70
2023-04-02T11:11:05.340Z,7.80
2023-04-02T11:13:39.074Z,8.00
2023-04-02T11:16:06.285Z,8.00
2023-04-02T11:18:38.423Z,7.90
2023-04-02T11:21:44.915Z,8.00
2023-04-02T11:24:31.524Z,8.00
2023-04-02T11:27:16.301Z,7.90
2023-04-02T11:29:49.208Z,7.90
2023-04-02T11:32:29.459Z,7.90
2023-04-02T11:35:06.603Z,7.90
2023-04-02T11:37:43.707Z,7.90
2023-04-02T11:40:16.038Z,7.80
2023-04-02T11:42:44.489Z,7.70
2023-04-02T11:45:21.086Z,7.80
2023-04-02T11:48:00.662Z,7.80
2023-04-02T11:50:36.325Z,7.90
2023-04-02T11:53:27.843Z,7.90
2023-04-02T11:55:58.444Z,7.80
2023-04-02T11:58:46.255Z,7.90
2023-04-02T12:01:53.881Z,8.00
2023-04-02T12:04:39.025Z,8.10
2023-04-02T12:07:37.477Z,8.10
2023-04-02T12:10:27.573Z,8.00
2023-04-02T12:12:54.209Z,7.90
2023-04-02T12:15:44.010Z,8.00
2023-04-02T12:18:23.077Z,8.20
2023-04-02T12:20:52.479Z,8.20
2023-04-02T12:23:22.575Z,8.20
2023-04-02T12:25:59.917Z,8.20
2023-04-02T12:28:33.639Z,8.30
2023-04-02T12:31:22.155Z,8.50
2023-04-02T12:33:52.384Z,8.50
2023-04-02T12:36:21.855Z,8.50
2023-04-02T12:38:54.522Z,8.50
2023-04-02T12:41:33.312Z,8.80
2023-04-02T12:44:02.683Z,8.80
2023-04-02T12:46:35.342Z,8.70
2023-04-02T12:49:06.676Z,8.70
2023-04-02T12:51:35.870Z,8.70
2023-04-02T12:54:03.164Z,8.70
2023-04-02T12:56:29.725Z,8.70
2023-04-02T12:58:58.608Z,8.70
2023-04-02T13:01:31.373Z,8.90
2023-04-02T13:04:08.255Z,8.80
2023-04-02T13:06:36.352Z,8.90
2023-04-02T13:09:05.896Z,9.10
2023-04-02T13:11:41.276Z,8.90
2023-04-02T13:14:17.468Z,9.10
2023-04-02T13:16:44.375Z,9.00
2023-04-02T13:19:23.083Z,9.10
2023-04-02T13:21:50.320Z,9.10
2023-04-02T13:24:25.155Z,9.10
2023-04-02T13:26:55.868Z,9.10
2023-04-02T13:29:30.603Z,9.20
2023-04-02T13:32:00.075Z,9.10
2023-04-02T13:34:27.451Z,9.20
2023-04-02T13:36:54.206Z,9.10
2023-04-02T13:39:21.699Z,9.20
2023-04-02T13:41:52.071Z,9.30
2023-04-02T13:44:24.772Z,9.20
2023-04-02T13:46:51.815Z,9.30
2023-04-02T13:49:18.824Z,9.20
2023-04-02T13:51:59.822Z,9.20
2023-04-02T13:54:37.148Z,9.10
2023-04-02T13:57:03.925Z,9.20
2023-04-02T13:59:31.189Z,9.20
2023-04-02T14:02:02.980Z,9.30
2023-04-02T14:04:33.897Z,9.20
2023-04-02T14:07:19.910Z,9.00
2023-04-02T14:09:57.965Z,9.00
2023-04-02T14:12:41.276Z,9.10
2023-04-02T14:15:14.972Z,9.00
2023-04-02T14:18:00.773Z,8.90
2023-04-02T14:20:34.887Z,8.90
2023-04-02T14:23:31.240Z,8.90
2023-04-02T14:25:57.787Z,8.90
2023-04-02T14:29:02.000Z,8.90
2023-04-02T14:32:03.514Z,8.90
2023-04-02T14:34:55.192Z,8.70
2023-04-02T14:37:30.796Z,8.90
2023-04-02T14:40:16.098Z,8.80
2023-04-02T14:43:03.124Z,8.80
2023-04-02T14:45:53.875Z,8.70
2023-04-02T14:48:40.055Z,8.60
2023-04-02T14:51:34.616Z,8.60
2023-04-02T14:54:29.682Z,8.60
2023-04-02T14:57:16.636Z,8.70
2023-04-02T15:00:01.911Z,8.70
2023-04-02T15:02:55.782Z,8.70
2023-04-02T15:05:41.273Z,8.60
2023-04-02T15:08:36.042Z,8.60
2023-04-02T15:11:08.082Z,8.50
2023-04-02T15:13:41.292Z,8.60
2023-04-02T15:16:16.088Z,8.60
2023-04-02T15:18:43.080Z,8.70
2023-04-02T15:21:29.170Z,8.50
2023-04-02T15:24:14.479Z,8.50
2023-04-02T15:26:58.965Z,8.60
2023-04-02T15:29:45.356Z,8.70
2023-04-02T15:32:33.030Z,8.50
2023-04-02T15:35:05.776Z,8.50
2023-04-02T15:38:00.168Z,8.50
2023-04-02T15:41:02.138Z,8.40
2023-04-02T15:43:40.987Z,8.40
2023-04-02T15:46:23.875Z,8.40
2023-04-02T15:49:32.160Z,8.50
2023-04-02T15:52:21.602Z,8.60
2023-04-02T15:54:56.871Z,8.40
2023-04-02T15:57:28.065Z,8.40
2023-04-02T16:00:26.556Z,8.30
2023-04-02T16:03:18.304Z,8.20
2023-04-02T16:06:13.021Z,8.20
2023-04-02T16:09:09.012Z,8.20
2023-04-02T16:11:36.401Z,8.20
2023-04-02T16:14:27.235Z,8.20
2023-04-02T16:16:59.916Z,8.20
2023-04-02T16:19:36.630Z,8.20
2023-04-02T16:22:29.319Z,8.10
2023-04-02T16:25:16.342Z,8.20
2023-04-02T16:28:06.193Z,8.30
2023-04-02T16:30:57.643Z,8.20
2023-04-02T16:33:52.877Z,8.10
2023-04-02T16:36:30.630Z,8.50
2023-04-02T16:39:14.340Z,9.00
2023-04-02T16:42:01.916Z,9.90
2023-04-02T16:44:54.820Z,11.30
2023-04-02T16:47:40.348Z,12.20
2023-04-02T16:50:24.917Z,13.00
2023-04-02T16:53:24.579Z,14.10
2023-04-02T16:56:00.385Z,14.60
2023-04-02T16:58:45.103Z,14.20
2023-04-02T17:01:24.923Z,13.70
2023-04-02T17:04:14.576Z,11.90
2023-04-02T17:07:05.691Z,11.60
2023-04-02T17:09:50.263Z,11.10
2023-04-02T17:12:32.599Z,10.90
2023-04-02T17:15:11.541Z,10.70
2023-04-02T17:17:44.701Z,10.50
2023-04-02T17:20:19.863Z,10.20
2023-04-02T17:22:47.472Z,10.10
2023-04-02T17:25:52.701Z,9.90
2023-04-02T17:28:26.225Z,9.30
2023-04-02T17:30:57.579Z,8.90
2023-04-02T17:33:26.746Z,8.70
2023-04-02T17:36:26.108Z,8.40
2023-04-02T17:39:22.915Z,8.20
2023-04-02T17:42:00.694Z,7.90
2023-04-02T17:45:00.986Z,7.70
2023-04-02T17:47:43.663Z,7.50
2023-04-02T17:50:28.919Z,7.30
2023-04-02T17:53:20.361Z,7.10
2023-04-02T17:56:27.139Z,6.90
2023-04-02T17:59:06.193Z,6.70
2023-04-02T18:01:50.540Z,6.60
2023-04-02T18:04:21.619Z,6.50
2023-04-02T18:07:19.811Z,6.40
2023-04-02T18:10:08.047Z,6.40
2023-04-02T18:12:57.933Z,6.30
2023-04-02T18:16:06.696Z,6.20
2023-04-02T18:18:57.583Z,6.10
2023-04-02T18:21:44.244Z,6.00
2023-04-02T18:24:28.437Z,5.90
2023-04-02T18:27:22.604Z,5.80
2023-04-02T18:29:52.254Z,5.80
2023-04-02T18:32:56.212Z,5.70
2023-04-02T18:35:33.604Z,5.70
2023-04-02T18:38:32.535Z,5.70
2023-04-02T18:41:34.212Z,5.70
2023-04-02T18:44:03.726Z,5.80
2023-04-02T18:46:55.118Z,5.80
2023-04-02T18:49:36.039Z,5.90
2023-04-02T18:52:10.515Z,6.00
2023-04-02T18:54:51.284Z,6.10
2023-04-02T18:57:27.540Z,6.20
2023-04-02T19:00:01.901Z,6.20
2023-04-02T19:02:44.247Z,6.20
2023-04-02T19:05:26.477Z,6.10
2023-04-02T19:08:02.391Z,6.10
2023-04-02T19:10:36.727Z,6.10
2023-04-02T19:13:13.124Z,6.10
2023-04-02T19:16:15.642Z,6.00
2023-04-02T19:19:00.177Z,6.00
2023-04-02T19:21:34.877Z,6.00
2023-04-02T19:24:33.352Z,6.00
2023-04-02T19:27:36.744Z,6.00
2023-04-02T19:30:24.766Z,6.00
2023-04-02T19:33:08.690Z,5.90
2023-04-02T19:35:47.691Z,6.00
2023-04-02T19:38:52.030Z,5.90
2023-04-02T19:41:24.748Z,5.90
2023-04-02T19:43:51.643Z,5.90
2023-04-02T19:46:18.304Z,5.80
2023-04-02T19:49:06.876Z,5.70
2023-04-02T19:51:33.650Z,5.50
2023-04-02T19:54:00.756Z,5.30
2023-04-02T19:56:28.181Z,5.20
2023-04-02T19:58:56.660Z,5.10
2023-04-02T20:01:23.409Z,5.00
2023-04-02T20:03:50.136Z,4.80
2023-04-02T20:06:17.010Z,4.60
2023-04-02T20:08:43.728Z,4.40
2023-04-02T20:11:10.332Z,4.30
2023-04-02T20:13:36.925Z,4.10
2023-04-02T20:16:05.533Z,3.90
2023-04-02T20:18:32.460Z,3.80
2023-04-02T20:20:59.087Z,3.70
2023-04-02T20:23:25.755Z,3.60
2023-04-02T20:25:56.234Z,3.60
2023-04-02T20:28:24.182Z,3.50
2023-04-02T20:30:51.379Z,3.40
2023-04-02T20:33:23.342Z,3.40
2023-04-02T20:35:52.058Z,3.30
2023-04-02T20:38:18.901Z,3.20
2023-04-02T20:40:52.573Z,3.10
2023-04-02T20:43:19.159Z,3.10
2023-04-02T20:45:57.253Z,3.00
2023-04-02T20:48:25.496Z,2.90
2023-04-02T20:50:52.206Z,2.80
2023-04-02T20:53:19.283Z,2.70
2023-04-02T20:55:46.665Z,2.70
2023-04-02T20:58:15.469Z,2.70
2023-04-02T21:00:42.260Z,2.60
2023-04-02T21:03:10.083Z,2.50
2023-04-02T21:05:44.902Z,2.40
2023-04-02T21:08:12.214Z,2.30
2023-04-02T21:10:40.023Z,2.20
2023-04-02T21:13:06.976Z,2.20
2023-04-02T21:15:33.900Z,2.20
2023-04-02T21:18:01.155Z,2.10
2023-04-02T21:20:27.748Z,2.00
2023-04-02T21:22:54.263Z,1.90
2023-04-02T21:25:20.822Z,1.80
2023-04-02T21:27:47.491Z,1.80
2023-04-02T21:30:14.200Z,1.70
2023-04-02T21:32:40.979Z,1.60
2023-04-02T21:35:08.936Z,1.60
2023-04-02T21:37:35.989Z,1.50
2023-04-02T21:40:02.624Z,1.50
2023-04-02T21:42:29.376Z,1.40
2023-04-02T21:44:55.899Z,1.30
2023-04-02T21:47:23.338Z,1.20
2023-04-02T21:49:50.107Z,1.20
2023-04-02T21:52:16.605Z,1.10
2023-04-02T21:54:43.341Z,1.00
2023-04-02T21:57:09.913Z,1.00
2023-04-02T21:59:36.516Z,1.00
2023-04-02T22:02:04.567Z,1.00
2023-04-02T22:04:33.112Z,1.00
2023-04-02T22:06:59.659Z,1.00
2023-04-02T22:09:26.834Z,1.00
2023-04-02T22:11:59.930Z,0.90
2023-04-02T22:14:27.297Z,0.90
2023-04-02T22:16:53.950Z,1.00
2023-04-02T22:19:21.710Z,0.90
2023-04-02T22:21:48.304Z,0.90
2023-04-02T22:24:18.667Z,0.80
2023-04-02T22:26:46.029Z,0.70
2023-04-02T22:29:12.562Z,0.70
2023-04-02T22:31:39.394Z,0.60
2023-04-02T22:34:06.651Z,0.60
2023-04-02T22:36:34.161Z,0.50
2023-04-02T22:39:01.747Z,0.40
2023-04-02T22:41:29.614Z,0.40
2023-04-02T22:43:57.101Z,0.40
2023-04-02T22:46:25.438Z,0.40
2023-04-02T22:48:52.556Z,0.30
2023-04-02T22:51:20.962Z,0.30
2023-04-02T22:53:48.428Z,0.20
2023-04-02T22:56:17.585Z,0.20
2023-04-02T22:58:44.367Z,0.20
2023-04-02T23:01:21.335Z,0.10
2023-04-02T23:03:48.346Z,0.10
2023-04-02T23:06:17.890Z,0.10
2023-04-02T23:08:45.420Z,0.00
2023-04-02T23:11:24.084Z,0.00
2023-04-02T23:13:52.335Z,-0.10
2023-04-02T23:16:19.983Z,-0.10
2023-04-02T23:18:48.173Z,-0.20
2023-04-02T23:21:16.195Z,-0.30
2023-04-02T23:23:43.441Z,-0.30
2023-04-02T23:26:18.919Z,-0.30
2023-04-02T23:28:45.705Z,-0.40
2023-04-02T23:31:15.628Z,-0.40
2023-04-02T23:33:42.514Z,-0.20
2023-04-02T23:36:15.867Z,-0.30
2023-04-02T23:38:42.544Z,-0.30
2023-04-02T23:41:16.368Z,-0.40
2023-04-02T23:43:43.708Z,-0.30
2023-04-02T23:46:10.503Z,-0.40
2023-04-02T23:48:37.146Z,-0.30
2023-04-02T23:51:04.371Z,-0.30
2023-04-02T23:53:30.979Z,-0.30
2023-04-02T23:55:57.855Z,-0.30
2023-04-02T23:58:24.371Z,-0.40
